Hlavní strana
METAR-TAF:

METAR-TAF

Letiště :

Laupheim, Německo

zeměpisná šířka: 48-13N, zeměpisná délka: 009-55E, výška: 538 m

Aktuální stav počasí

Zpráva byla vytvořena před 41 minutami, v 13:20 UTC
Západojihozápadní vítr 10 kt
Teplota 24°C
Vlhkost vzduchu 36%
Tlak 1020 hPa
Viditelnost 10 km a více
Skoro jasno ve výšce 5000 ft
Oblačno až skoro zataženo ve výšce 28000 ft

METAR: ETHL 141320Z 25010KT 9999 FEW050 BKN280 24/08 Q1020 BLU+

Čas: 16:01 (14:01 UTC)


TAF: chybějící

Stav a předpovědi počasí z více než 4 000 letišť (zprávy METAR a TAF).

Červené a žluté tečky na mapě představují dostupné meteorologické stanice.

Když kurzor umístíte na tečku, zobrazí se název stanice.

Pak kliknutím zobrazíte stav a předpověď počasí.

Chcete-li změnit mapu, kliknutím na zelené tlačítko se znaménkem +mapu přiblížíte, kliknutím na zelené tlačítko se znaménkem – mapu oddálíte a kliknutím na zelené šipky přejdete na sousední mapy.


METAR-TAF: